sensor_id;sensor_type;location;lat;lon;timestamp;temperature;humidity
78788;DHT22;68131;52.508;5.502;2023-04-06T00:01:43;6.50;57.60
78788;DHT22;68131;52.508;5.502;2023-04-06T00:04:13;6.50;57.80
78788;DHT22;68131;52.508;5.502;2023-04-06T00:06:42;6.40;57.90
78788;DHT22;68131;52.508;5.502;2023-04-06T00:09:13;6.40;58.10
78788;DHT22;68131;52.508;5.502;2023-04-06T00:11:42;6.30;58.40
78788;DHT22;68131;52.508;5.502;2023-04-06T00:14:12;6.30;58.20
78788;DHT22;68131;52.508;5.502;2023-04-06T00:16:43;6.30;58.00
78788;DHT22;68131;52.508;5.502;2023-04-06T00:19:12;6.30;57.80
78788;DHT22;68131;52.508;5.502;2023-04-06T00:21:41;6.30;57.70
78788;DHT22;68131;52.508;5.502;2023-04-06T00:24:13;6.30;57.30
78788;DHT22;68131;52.508;5.502;2023-04-06T00:26:42;6.20;57.70
78788;DHT22;68131;52.508;5.502;2023-04-06T00:29:11;6.20;57.70
78788;DHT22;68131;52.508;5.502;2023-04-06T00:31:41;6.20;57.80
78788;DHT22;68131;52.508;5.502;2023-04-06T00:34:10;6.20;58.00
78788;DHT22;68131;52.508;5.502;2023-04-06T00:36:41;6.10;58.10
78788;DHT22;68131;52.508;5.502;2023-04-06T00:39:12;6.10;58.20
78788;DHT22;68131;52.508;5.502;2023-04-06T00:41:46;6.00;58.40
78788;DHT22;68131;52.508;5.502;2023-04-06T00:44:17;6.00;58.50
78788;DHT22;68131;52.508;5.502;2023-04-06T00:46:46;5.90;58.90
78788;DHT22;68131;52.508;5.502;2023-04-06T00:49:16;5.90;58.90
78788;DHT22;68131;52.508;5.502;2023-04-06T00:51:45;5.80;59.10
78788;DHT22;68131;52.508;5.502;2023-04-06T00:54:18;5.80;59.30
78788;DHT22;68131;52.508;5.502;2023-04-06T00:56:47;5.80;59.50
78788;DHT22;68131;52.508;5.502;2023-04-06T00:59:16;5.70;60.00
78788;DHT22;68131;52.508;5.502;2023-04-06T01:01:46;5.60;60.20
78788;DHT22;68131;52.508;5.502;2023-04-06T01:04:29;5.60;60.40
78788;DHT22;68131;52.508;5.502;2023-04-06T01:06:59;5.50;60.60
78788;DHT22;68131;52.508;5.502;2023-04-06T01:09:39;5.50;60.50
78788;DHT22;68131;52.508;5.502;2023-04-06T01:12:15;5.50;60.10
78788;DHT22;68131;52.508;5.502;2023-04-06T01:14:45;5.40;59.60
78788;DHT22;68131;52.508;5.502;2023-04-06T01:17:14;5.40;59.40
78788;DHT22;68131;52.508;5.502;2023-04-06T01:19:44;5.40;59.40
78788;DHT22;68131;52.508;5.502;2023-04-06T01:22:24;5.40;59.40
78788;DHT22;68131;52.508;5.502;2023-04-06T01:24:59;5.40;59.30
78788;DHT22;68131;52.508;5.502;2023-04-06T01:27:38;5.40;59.40
78788;DHT22;68131;52.508;5.502;2023-04-06T01:30:12;5.40;59.60
78788;DHT22;68131;52.508;5.502;2023-04-06T01:32:47;5.40;59.60
78788;DHT22;68131;52.508;5.502;2023-04-06T01:35:26;5.30;59.90
78788;DHT22;68131;52.508;5.502;2023-04-06T01:38:12;5.30;60.00
78788;DHT22;68131;52.508;5.502;2023-04-06T01:40:41;5.30;60.20
78788;DHT22;68131;52.508;5.502;2023-04-06T01:43:10;5.30;60.20
78788;DHT22;68131;52.508;5.502;2023-04-06T01:45:56;5.20;60.80
78788;DHT22;68131;52.508;5.502;2023-04-06T01:48:31;5.20;60.70
78788;DHT22;68131;52.508;5.502;2023-04-06T01:51:06;5.20;60.70
78788;DHT22;68131;52.508;5.502;2023-04-06T01:53:46;5.20;60.90
78788;DHT22;68131;52.508;5.502;2023-04-06T01:56:18;5.20;61.00
78788;DHT22;68131;52.508;5.502;2023-04-06T01:58:57;5.20;61.10
78788;DHT22;68131;52.508;5.502;2023-04-06T02:01:32;5.20;61.10
78788;DHT22;68131;52.508;5.502;2023-04-06T02:04:01;5.30;60.90
78788;DHT22;68131;52.508;5.502;2023-04-06T02:06:30;5.30;60.90
78788;DHT22;68131;52.508;5.502;2023-04-06T02:09:03;5.40;60.80
78788;DHT22;68131;52.508;5.502;2023-04-06T02:11:33;5.40;60.70
78788;DHT22;68131;52.508;5.502;2023-04-06T02:14:02;5.40;60.60
78788;DHT22;68131;52.508;5.502;2023-04-06T02:16:35;5.40;60.50
78788;DHT22;68131;52.508;5.502;2023-04-06T02:19:04;5.40;60.50
78788;DHT22;68131;52.508;5.502;2023-04-06T02:21:34;5.40;60.40
78788;DHT22;68131;52.508;5.502;2023-04-06T02:24:06;5.40;60.30
78788;DHT22;68131;52.508;5.502;2023-04-06T02:26:35;5.40;60.40
78788;DHT22;68131;52.508;5.502;2023-04-06T02:29:04;5.40;60.10
78788;DHT22;68131;52.508;5.502;2023-04-06T02:31:33;5.50;59.80
78788;DHT22;68131;52.508;5.502;2023-04-06T02:34:03;5.50;59.60
78788;DHT22;68131;52.508;5.502;2023-04-06T02:36:33;5.50;59.50
78788;DHT22;68131;52.508;5.502;2023-04-06T02:39:05;5.50;59.60
78788;DHT22;68131;52.508;5.502;2023-04-06T02:41:34;5.50;59.60
78788;DHT22;68131;52.508;5.502;2023-04-06T02:44:06;5.50;59.80
78788;DHT22;68131;52.508;5.502;2023-04-06T02:46:44;5.50;59.90
78788;DHT22;68131;52.508;5.502;2023-04-06T02:49:13;5.50;60.00
78788;DHT22;68131;52.508;5.502;2023-04-06T02:51:42;5.50;60.20
78788;DHT22;68131;52.508;5.502;2023-04-06T02:54:28;5.50;60.20
78788;DHT22;68131;52.508;5.502;2023-04-06T02:56:57;5.50;60.40
78788;DHT22;68131;52.508;5.502;2023-04-06T02:59:36;5.50;60.50
78788;DHT22;68131;52.508;5.502;2023-04-06T03:02:14;5.50;60.70
78788;DHT22;68131;52.508;5.502;2023-04-06T03:04:44;5.50;60.80
78788;DHT22;68131;52.508;5.502;2023-04-06T03:07:22;5.40;60.90
78788;DHT22;68131;52.508;5.502;2023-04-06T03:09:54;5.40;60.90
78788;DHT22;68131;52.508;5.502;2023-04-06T03:12:23;5.40;60.60
78788;DHT22;68131;52.508;5.502;2023-04-06T03:15:13;5.50;60.50
78788;DHT22;68131;52.508;5.502;2023-04-06T03:17:47;5.50;60.30
78788;DHT22;68131;52.508;5.502;2023-04-06T03:20:30;5.50;60.40
78788;DHT22;68131;52.508;5.502;2023-04-06T03:23:00;5.50;60.30
78788;DHT22;68131;52.508;5.502;2023-04-06T03:25:36;5.50;60.20
78788;DHT22;68131;52.508;5.502;2023-04-06T03:28:06;5.50;60.20
78788;DHT22;68131;52.508;5.502;2023-04-06T03:30:42;5.50;60.20
78788;DHT22;68131;52.508;5.502;2023-04-06T03:33:13;5.50;60.10
78788;DHT22;68131;52.508;5.502;2023-04-06T03:35:52;5.50;60.10
78788;DHT22;68131;52.508;5.502;2023-04-06T03:38:23;5.50;60.00
78788;DHT22;68131;52.508;5.502;2023-04-06T03:40:55;5.60;59.70
78788;DHT22;68131;52.508;5.502;2023-04-06T03:43:27;5.60;59.70
78788;DHT22;68131;52.508;5.502;2023-04-06T03:45:56;5.60;59.70
78788;DHT22;68131;52.508;5.502;2023-04-06T03:48:25;5.60;59.70
78788;DHT22;68131;52.508;5.502;2023-04-06T03:50:55;5.60;59.60
78788;DHT22;68131;52.508;5.502;2023-04-06T03:53:26;5.70;59.30
78788;DHT22;68131;52.508;5.502;2023-04-06T03:55:57;5.70;59.20
78788;DHT22;68131;52.508;5.502;2023-04-06T03:58:27;5.70;59.10
78788;DHT22;68131;52.508;5.502;2023-04-06T04:00:57;5.70;59.00
78788;DHT22;68131;52.508;5.502;2023-04-06T04:03:26;5.70;59.00
78788;DHT22;68131;52.508;5.502;2023-04-06T04:05:55;5.70;59.00
78788;DHT22;68131;52.508;5.502;2023-04-06T04:08:26;5.80;58.90
78788;DHT22;68131;52.508;5.502;2023-04-06T04:10:57;5.80;58.70
78788;DHT22;68131;52.508;5.502;2023-04-06T04:13:26;5.70;58.70
78788;DHT22;68131;52.508;5.502;2023-04-06T04:15:56;5.70;58.80
78788;DHT22;68131;52.508;5.502;2023-04-06T04:18:25;5.60;58.80
78788;DHT22;68131;52.508;5.502;2023-04-06T04:20:54;5.60;58.80
78788;DHT22;68131;52.508;5.502;2023-04-06T04:23:23;5.50;58.80
78788;DHT22;68131;52.508;5.502;2023-04-06T04:25:52;5.50;58.90
78788;DHT22;68131;52.508;5.502;2023-04-06T04:28:24;5.50;58.80
78788;DHT22;68131;52.508;5.502;2023-04-06T04:30:55;5.50;58.90
78788;DHT22;68131;52.508;5.502;2023-04-06T04:33:24;5.50;58.90
78788;DHT22;68131;52.508;5.502;2023-04-06T04:35:56;5.50;58.80
78788;DHT22;68131;52.508;5.502;2023-04-06T04:38:29;5.50;58.80
78788;DHT22;68131;52.508;5.502;2023-04-06T04:40:58;5.50;58.60
78788;DHT22;68131;52.508;5.502;2023-04-06T04:43:30;5.50;58.60
78788;DHT22;68131;52.508;5.502;2023-04-06T04:46:01;5.50;58.80
78788;DHT22;68131;52.508;5.502;2023-04-06T04:48:39;5.50;58.80
78788;DHT22;68131;52.508;5.502;2023-04-06T04:51:08;5.50;58.80
78788;DHT22;68131;52.508;5.502;2023-04-06T04:53:56;5.50;58.70
78788;DHT22;68131;52.508;5.502;2023-04-06T04:56:29;5.50;58.60
78788;DHT22;68131;52.508;5.502;2023-04-06T04:59:21;5.50;58.60
78788;DHT22;68131;52.508;5.502;2023-04-06T05:01:59;5.50;58.60
78788;DHT22;68131;52.508;5.502;2023-04-06T05:04:41;5.50;58.30
78788;DHT22;68131;52.508;5.502;2023-04-06T05:07:16;5.50;58.20
78788;DHT22;68131;52.508;5.502;2023-04-06T05:09:47;5.60;58.30
78788;DHT22;68131;52.508;5.502;2023-04-06T05:12:17;5.50;58.40
78788;DHT22;68131;52.508;5.502;2023-04-06T05:15:08;5.60;58.30
78788;DHT22;68131;52.508;5.502;2023-04-06T05:17:37;5.60;58.20
78788;DHT22;68131;52.508;5.502;2023-04-06T05:20:10;5.60;58.30
78788;DHT22;68131;52.508;5.502;2023-04-06T05:22:45;5.60;58.20
78788;DHT22;68131;52.508;5.502;2023-04-06T05:25:15;5.70;58.10
78788;DHT22;68131;52.508;5.502;2023-04-06T05:27:47;5.70;58.20
78788;DHT22;68131;52.508;5.502;2023-04-06T05:30:38;5.70;57.90
78788;DHT22;68131;52.508;5.502;2023-04-06T05:33:10;5.70;58.00
78788;DHT22;68131;52.508;5.502;2023-04-06T05:35:53;5.80;58.00
78788;DHT22;68131;52.508;5.502;2023-04-06T05:38:22;5.90;58.00
78788;DHT22;68131;52.508;5.502;2023-04-06T05:40:53;6.20;58.10
78788;DHT22;68131;52.508;5.502;2023-04-06T05:43:26;6.40;57.70
78788;DHT22;68131;52.508;5.502;2023-04-06T05:46:00;6.50;57.30
78788;DHT22;68131;52.508;5.502;2023-04-06T05:48:29;6.50;57.20
78788;DHT22;68131;52.508;5.502;2023-04-06T05:50:58;6.40;57.00
78788;DHT22;68131;52.508;5.502;2023-04-06T05:53:38;6.50;57.10
78788;DHT22;68131;52.508;5.502;2023-04-06T05:56:07;6.50;57.10
78788;DHT22;68131;52.508;5.502;2023-04-06T05:58:36;6.60;57.00
78788;DHT22;68131;52.508;5.502;2023-04-06T06:01:09;6.60;56.70
78788;DHT22;68131;52.508;5.502;2023-04-06T06:03:42;6.70;57.10
78788;DHT22;68131;52.508;5.502;2023-04-06T06:06:11;7.10;56.90
78788;DHT22;68131;52.508;5.502;2023-04-06T06:09:01;7.70;55.90
78788;DHT22;68131;52.508;5.502;2023-04-06T06:11:33;8.40;54.70
78788;DHT22;68131;52.508;5.502;2023-04-06T06:14:03;8.80;53.70
78788;DHT22;68131;52.508;5.502;2023-04-06T06:16:38;9.00;53.10
78788;DHT22;68131;52.508;5.502;2023-04-06T06:19:10;8.80;53.10
78788;DHT22;68131;52.508;5.502;2023-04-06T06:21:39;8.60;53.60
78788;DHT22;68131;52.508;5.502;2023-04-06T06:24:08;8.30;54.10
78788;DHT22;68131;52.508;5.502;2023-04-06T06:26:39;8.10;54.30
78788;DHT22;68131;52.508;5.502;2023-04-06T06:29:10;8.00;54.90
78788;DHT22;68131;52.508;5.502;2023-04-06T06:31:42;8.00;55.00
78788;DHT22;68131;52.508;5.502;2023-04-06T06:34:11;8.00;55.10
78788;DHT22;68131;52.508;5.502;2023-04-06T06:36:42;8.00;55.20
78788;DHT22;68131;52.508;5.502;2023-04-06T06:39:13;8.10;55.20
78788;DHT22;68131;52.508;5.502;2023-04-06T06:41:42;8.20;55.30
78788;DHT22;68131;52.508;5.502;2023-04-06T06:44:11;8.40;55.10
78788;DHT22;68131;52.508;5.502;2023-04-06T06:46:43;8.60;54.80
78788;DHT22;68131;52.508;5.502;2023-04-06T06:49:12;8.90;54.80
78788;DHT22;68131;52.508;5.502;2023-04-06T06:51:41;9.20;54.30
78788;DHT22;68131;52.508;5.502;2023-04-06T06:54:10;9.40;53.90
78788;DHT22;68131;52.508;5.502;2023-04-06T06:56:39;9.40;54.00
78788;DHT22;68131;52.508;5.502;2023-04-06T06:59:08;9.30;54.50
78788;DHT22;68131;52.508;5.502;2023-04-06T07:01:37;9.40;54.10
78788;DHT22;68131;52.508;5.502;2023-04-06T07:04:09;9.30;53.70
78788;DHT22;68131;52.508;5.502;2023-04-06T07:06:38;9.20;54.10
78788;DHT22;68131;52.508;5.502;2023-04-06T07:09:07;9.10;54.40
78788;DHT22;68131;52.508;5.502;2023-04-06T07:11:36;9.10;54.60
78788;DHT22;68131;52.508;5.502;2023-04-06T07:14:05;9.10;54.90
78788;DHT22;68131;52.508;5.502;2023-04-06T07:16:34;9.10;55.20
78788;DHT22;68131;52.508;5.502;2023-04-06T07:19:04;9.10;55.00
78788;DHT22;68131;52.508;5.502;2023-04-06T07:21:35;9.10;54.80
78788;DHT22;68131;52.508;5.502;2023-04-06T07:24:05;9.00;54.50
78788;DHT22;68131;52.508;5.502;2023-04-06T07:26:34;9.10;54.70
78788;DHT22;68131;52.508;5.502;2023-04-06T07:29:04;9.10;54.10
78788;DHT22;68131;52.508;5.502;2023-04-06T07:31:33;9.10;54.40
78788;DHT22;68131;52.508;5.502;2023-04-06T07:34:03;9.20;54.10
78788;DHT22;68131;52.508;5.502;2023-04-06T07:36:35;9.20;54.40
78788;DHT22;68131;52.508;5.502;2023-04-06T07:39:04;9.30;53.80
78788;DHT22;68131;52.508;5.502;2023-04-06T07:41:34;9.30;53.70
78788;DHT22;68131;52.508;5.502;2023-04-06T07:44:04;9.40;53.80
78788;DHT22;68131;52.508;5.502;2023-04-06T07:46:34;9.50;54.40
78788;DHT22;68131;52.508;5.502;2023-04-06T07:49:03;9.60;54.00
78788;DHT22;68131;52.508;5.502;2023-04-06T07:51:39;9.60;54.00
78788;DHT22;68131;52.508;5.502;2023-04-06T07:54:08;9.60;54.00
78788;DHT22;68131;52.508;5.502;2023-04-06T07:56:37;9.60;53.90
78788;DHT22;68131;52.508;5.502;2023-04-06T07:59:06;9.60;53.90
78788;DHT22;68131;52.508;5.502;2023-04-06T08:01:37;9.50;54.10
78788;DHT22;68131;52.508;5.502;2023-04-06T08:04:06;9.50;54.30
78788;DHT22;68131;52.508;5.502;2023-04-06T08:06:38;9.50;54.50
78788;DHT22;68131;52.508;5.502;2023-04-06T08:09:07;9.50;54.70
78788;DHT22;68131;52.508;5.502;2023-04-06T08:11:36;9.50;54.70
78788;DHT22;68131;52.508;5.502;2023-04-06T08:14:05;9.50;54.50
78788;DHT22;68131;52.508;5.502;2023-04-06T08:16:34;9.40;54.40
78788;DHT22;68131;52.508;5.502;2023-04-06T08:19:03;9.40;54.80
78788;DHT22;68131;52.508;5.502;2023-04-06T08:21:38;9.40;54.90
78788;DHT22;68131;52.508;5.502;2023-04-06T08:24:07;9.40;54.70
78788;DHT22;68131;52.508;5.502;2023-04-06T08:26:36;9.40;54.80
78788;DHT22;68131;52.508;5.502;2023-04-06T08:29:05;9.50;54.90
78788;DHT22;68131;52.508;5.502;2023-04-06T08:31:35;9.50;54.90
78788;DHT22;68131;52.508;5.502;2023-04-06T08:34:04;9.40;55.20
78788;DHT22;68131;52.508;5.502;2023-04-06T08:36:34;9.40;54.80
78788;DHT22;68131;52.508;5.502;2023-04-06T08:39:05;9.30;55.10
78788;DHT22;68131;52.508;5.502;2023-04-06T08:41:35;9.30;55.60
78788;DHT22;68131;52.508;5.502;2023-04-06T08:44:04;9.40;55.50
78788;DHT22;68131;52.508;5.502;2023-04-06T08:46:33;9.40;55.90
78788;DHT22;68131;52.508;5.502;2023-04-06T08:49:03;9.60;56.00
78788;DHT22;68131;52.508;5.502;2023-04-06T08:51:32;9.70;56.10
78788;DHT22;68131;52.508;5.502;2023-04-06T08:54:01;9.80;56.00
78788;DHT22;68131;52.508;5.502;2023-04-06T08:56:37;9.80;56.30
78788;DHT22;68131;52.508;5.502;2023-04-06T08:59:07;9.90;55.80
78788;DHT22;68131;52.508;5.502;2023-04-06T09:01:40;9.80;56.10
78788;DHT22;68131;52.508;5.502;2023-04-06T09:04:14;9.90;56.20
78788;DHT22;68131;52.508;5.502;2023-04-06T09:06:43;9.90;56.00
78788;DHT22;68131;52.508;5.502;2023-04-06T09:09:13;9.90;56.30
78788;DHT22;68131;52.508;5.502;2023-04-06T09:11:46;10.00;56.40
78788;DHT22;68131;52.508;5.502;2023-04-06T09:14:16;10.00;56.10
78788;DHT22;68131;52.508;5.502;2023-04-06T09:16:45;10.00;56.10
78788;DHT22;68131;52.508;5.502;2023-04-06T09:19:14;10.10;56.20
78788;DHT22;68131;52.508;5.502;2023-04-06T09:21:44;10.10;56.40
78788;DHT22;68131;52.508;5.502;2023-04-06T09:24:13;10.20;56.30
78788;DHT22;68131;52.508;5.502;2023-04-06T09:26:47;10.20;56.00
78788;DHT22;68131;52.508;5.502;2023-04-06T09:29:23;10.30;56.10
78788;DHT22;68131;52.508;5.502;2023-04-06T09:32:02;10.40;56.20
78788;DHT22;68131;52.508;5.502;2023-04-06T09:34:32;10.50;56.30
78788;DHT22;68131;52.508;5.502;2023-04-06T09:37:12;10.60;56.00
78788;DHT22;68131;52.508;5.502;2023-04-06T09:39:41;10.80;56.10
78788;DHT22;68131;52.508;5.502;2023-04-06T09:42:23;10.90;55.30
78788;DHT22;68131;52.508;5.502;2023-04-06T09:44:53;11.00;55.30
78788;DHT22;68131;52.508;5.502;2023-04-06T09:47:22;11.00;55.10
78788;DHT22;68131;52.508;5.502;2023-04-06T09:49:55;11.10;55.70
78788;DHT22;68131;52.508;5.502;2023-04-06T09:52:26;11.10;55.20
78788;DHT22;68131;52.508;5.502;2023-04-06T09:55:02;11.20;55.20
78788;DHT22;68131;52.508;5.502;2023-04-06T09:57:38;11.20;54.90
78788;DHT22;68131;52.508;5.502;2023-04-06T10:00:12;11.20;55.00
78788;DHT22;68131;52.508;5.502;2023-04-06T10:02:49;11.20;55.00
78788;DHT22;68131;52.508;5.502;2023-04-06T10:05:27;11.20;55.50
78788;DHT22;68131;52.508;5.502;2023-04-06T10:08:00;11.20;55.30
78788;DHT22;68131;52.508;5.502;2023-04-06T10:10:31;11.10;55.70
78788;DHT22;68131;52.508;5.502;2023-04-06T10:13:03;11.20;55.70
78788;DHT22;68131;52.508;5.502;2023-04-06T10:15:33;11.30;56.10
78788;DHT22;68131;52.508;5.502;2023-04-06T10:18:03;11.40;56.00
78788;DHT22;68131;52.508;5.502;2023-04-06T10:20:38;11.50;56.10
78788;DHT22;68131;52.508;5.502;2023-04-06T10:23:10;11.50;56.30
78788;DHT22;68131;52.508;5.502;2023-04-06T10:25:52;11.60;56.30
78788;DHT22;68131;52.508;5.502;2023-04-06T10:28:24;11.50;56.20
78788;DHT22;68131;52.508;5.502;2023-04-06T10:30:57;11.40;56.90
78788;DHT22;68131;52.508;5.502;2023-04-06T10:33:27;11.40;57.20
78788;DHT22;68131;52.508;5.502;2023-04-06T10:35:56;11.50;57.60
78788;DHT22;68131;52.508;5.502;2023-04-06T10:38:35;11.60;57.70
78788;DHT22;68131;52.508;5.502;2023-04-06T10:41:04;11.70;57.30
78788;DHT22;68131;52.508;5.502;2023-04-06T10:43:37;11.80;57.60
78788;DHT22;68131;52.508;5.502;2023-04-06T10:46:08;11.80;57.80
78788;DHT22;68131;52.508;5.502;2023-04-06T10:48:38;11.80;57.60
78788;DHT22;68131;52.508;5.502;2023-04-06T10:51:10;11.70;57.60
78788;DHT22;68131;52.508;5.502;2023-04-06T10:53:41;11.70;57.70
78788;DHT22;68131;52.508;5.502;2023-04-06T10:56:13;11.80;58.20
78788;DHT22;68131;52.508;5.502;2023-04-06T10:58:49;11.90;58.00
78788;DHT22;68131;52.508;5.502;2023-04-06T11:01:20;11.90;58.30
78788;DHT22;68131;52.508;5.502;2023-04-06T11:03:50;11.90;58.40
78788;DHT22;68131;52.508;5.502;2023-04-06T11:06:21;11.90;58.20
78788;DHT22;68131;52.508;5.502;2023-04-06T11:08:50;12.00;58.30
78788;DHT22;68131;52.508;5.502;2023-04-06T11:11:21;12.00;58.40
78788;DHT22;68131;52.508;5.502;2023-04-06T11:13:56;12.00;58.50
78788;DHT22;68131;52.508;5.502;2023-04-06T11:16:26;12.00;58.60
78788;DHT22;68131;52.508;5.502;2023-04-06T11:18:56;12.00;59.50
78788;DHT22;68131;52.508;5.502;2023-04-06T11:21:33;12.10;59.90
78788;DHT22;68131;52.508;5.502;2023-04-06T11:24:07;12.10;60.20
78788;DHT22;68131;52.508;5.502;2023-04-06T11:26:38;12.20;60.70
78788;DHT22;68131;52.508;5.502;2023-04-06T11:29:10;12.20;60.40
78788;DHT22;68131;52.508;5.502;2023-04-06T11:31:40;12.20;60.50
78788;DHT22;68131;52.508;5.502;2023-04-06T11:34:11;12.10;61.30
78788;DHT22;68131;52.508;5.502;2023-04-06T11:36:42;12.00;61.70
78788;DHT22;68131;52.508;5.502;2023-04-06T11:39:12;12.10;62.30
78788;DHT22;68131;52.508;5.502;2023-04-06T11:41:41;12.00;62.30
78788;DHT22;68131;52.508;5.502;2023-04-06T11:44:13;12.00;62.50
78788;DHT22;68131;52.508;5.502;2023-04-06T11:46:51;11.90;62.30
78788;DHT22;68131;52.508;5.502;2023-04-06T11:49:21;11.80;62.60
78788;DHT22;68131;52.508;5.502;2023-04-06T11:51:50;11.60;63.20
78788;DHT22;68131;52.508;5.502;2023-04-06T11:54:29;11.40;63.50
78788;DHT22;68131;52.508;5.502;2023-04-06T11:56:59;11.20;64.20
78788;DHT22;68131;52.508;5.502;2023-04-06T11:59:30;11.10;65.50
78788;DHT22;68131;52.508;5.502;2023-04-06T12:02:00;11.00;65.80
78788;DHT22;68131;52.508;5.502;2023-04-06T12:04:30;10.90;66.20
78788;DHT22;68131;52.508;5.502;2023-04-06T12:06:59;10.90;67.20
78788;DHT22;68131;52.508;5.502;2023-04-06T12:09:28;10.80;67.30
78788;DHT22;68131;52.508;5.502;2023-04-06T12:11:58;10.70;66.60
78788;DHT22;68131;52.508;5.502;2023-04-06T12:14:29;10.60;67.30
78788;DHT22;68131;52.508;5.502;2023-04-06T12:16:59;10.50;67.10
78788;DHT22;68131;52.508;5.502;2023-04-06T12:19:28;10.40;67.80
78788;DHT22;68131;52.508;5.502;2023-04-06T12:21:57;10.40;68.00
78788;DHT22;68131;52.508;5.502;2023-04-06T12:24:27;10.40;68.20
78788;DHT22;68131;52.508;5.502;2023-04-06T12:26:56;10.30;68.80
78788;DHT22;68131;52.508;5.502;2023-04-06T12:29:25;10.30;68.60
78788;DHT22;68131;52.508;5.502;2023-04-06T12:31:57;10.20;68.90
78788;DHT22;68131;52.508;5.502;2023-04-06T12:34:27;10.20;68.50
78788;DHT22;68131;52.508;5.502;2023-04-06T12:36:56;10.00;69.50
78788;DHT22;68131;52.508;5.502;2023-04-06T12:39:25;10.00;69.60
78788;DHT22;68131;52.508;5.502;2023-04-06T12:41:56;9.90;69.70
78788;DHT22;68131;52.508;5.502;2023-04-06T12:44:25;9.90;70.10
78788;DHT22;68131;52.508;5.502;2023-04-06T12:46:56;9.80;70.20
78788;DHT22;68131;52.508;5.502;2023-04-06T12:49:27;9.80;70.30
78788;DHT22;68131;52.508;5.502;2023-04-06T12:51:56;9.80;70.40
78788;DHT22;68131;52.508;5.502;2023-04-06T12:54:25;9.80;70.70
78788;DHT22;68131;52.508;5.502;2023-04-06T12:56:56;9.90;70.40
78788;DHT22;68131;52.508;5.502;2023-04-06T12:59:25;9.90;70.70
78788;DHT22;68131;52.508;5.502;2023-04-06T13:02:03;10.00;69.50
78788;DHT22;68131;52.508;5.502;2023-04-06T13:04:32;9.90;69.60
78788;DHT22;68131;52.508;5.502;2023-04-06T13:07:01;9.90;70.10
78788;DHT22;68131;52.508;5.502;2023-04-06T13:09:31;9.90;70.00
78788;DHT22;68131;52.508;5.502;2023-04-06T13:12:00;9.90;69.70
78788;DHT22;68131;52.508;5.502;2023-04-06T13:14:29;9.90;70.20
78788;DHT22;68131;52.508;5.502;2023-04-06T13:16:59;9.80;69.90
78788;DHT22;68131;52.508;5.502;2023-04-06T13:19:31;9.80;70.70
78788;DHT22;68131;52.508;5.502;2023-04-06T13:22:00;9.80;71.20
78788;DHT22;68131;52.508;5.502;2023-04-06T13:24:29;9.90;71.10
78788;DHT22;68131;52.508;5.502;2023-04-06T13:26:58;9.90;70.50
78788;DHT22;68131;52.508;5.502;2023-04-06T13:29:28;9.80;70.90
78788;DHT22;68131;52.508;5.502;2023-04-06T13:31:58;9.80;70.80
78788;DHT22;68131;52.508;5.502;2023-04-06T13:34:30;9.80;70.80
78788;DHT22;68131;52.508;5.502;2023-04-06T13:36:59;9.70;71.20
78788;DHT22;68131;52.508;5.502;2023-04-06T13:39:28;9.70;70.90
78788;DHT22;68131;52.508;5.502;2023-04-06T13:41:57;9.60;71.20
78788;DHT22;68131;52.508;5.502;2023-04-06T13:44:28;9.60;71.10
78788;DHT22;68131;52.508;5.502;2023-04-06T13:46:57;9.50;71.70
78788;DHT22;68131;52.508;5.502;2023-04-06T13:49:26;9.40;71.90
78788;DHT22;68131;52.508;5.502;2023-04-06T13:51:58;9.40;72.60
78788;DHT22;68131;52.508;5.502;2023-04-06T13:54:28;9.40;72.20
78788;DHT22;68131;52.508;5.502;2023-04-06T13:56:57;9.40;72.30
78788;DHT22;68131;52.508;5.502;2023-04-06T13:59:32;9.40;72.90
78788;DHT22;68131;52.508;5.502;2023-04-06T14:02:01;9.30;73.00
78788;DHT22;68131;52.508;5.502;2023-04-06T14:04:31;9.30;73.40
78788;DHT22;68131;52.508;5.502;2023-04-06T14:07:03;9.30;73.70
78788;DHT22;68131;52.508;5.502;2023-04-06T14:09:33;9.30;73.70
78788;DHT22;68131;52.508;5.502;2023-04-06T14:12:03;9.30;74.30
78788;DHT22;68131;52.508;5.502;2023-04-06T14:14:32;9.30;74.50
78788;DHT22;68131;52.508;5.502;2023-04-06T14:17:01;9.30;73.90
78788;DHT22;68131;52.508;5.502;2023-04-06T14:19:30;9.20;74.00
78788;DHT22;68131;52.508;5.502;2023-04-06T14:21:59;9.20;74.40
78788;DHT22;68131;52.508;5.502;2023-04-06T14:24:31;9.20;74.70
78788;DHT22;68131;52.508;5.502;2023-04-06T14:27:01;9.20;74.40
78788;DHT22;68131;52.508;5.502;2023-04-06T14:29:31;9.20;74.80
78788;DHT22;68131;52.508;5.502;2023-04-06T14:32:00;9.20;74.60
78788;DHT22;68131;52.508;5.502;2023-04-06T14:34:29;9.10;74.90
78788;DHT22;68131;52.508;5.502;2023-04-06T14:36:58;9.00;75.40
78788;DHT22;68131;52.508;5.502;2023-04-06T14:39:29;9.10;75.60
78788;DHT22;68131;52.508;5.502;2023-04-06T14:41:59;9.10;75.60
78788;DHT22;68131;52.508;5.502;2023-04-06T14:44:28;9.10;75.30
78788;DHT22;68131;52.508;5.502;2023-04-06T14:46:57;9.00;75.80
78788;DHT22;68131;52.508;5.502;2023-04-06T14:49:26;9.10;75.90
78788;DHT22;68131;52.508;5.502;2023-04-06T14:51:55;9.10;76.10
78788;DHT22;68131;52.508;5.502;2023-04-06T14:54:24;9.00;76.10
78788;DHT22;68131;52.508;5.502;2023-04-06T14:56:56;9.00;76.00
78788;DHT22;68131;52.508;5.502;2023-04-06T14:59:26;8.90;76.30
78788;DHT22;68131;52.508;5.502;2023-04-06T15:01:55;8.90;76.50
78788;DHT22;68131;52.508;5.502;2023-04-06T15:04:26;8.90;76.70
78788;DHT22;68131;52.508;5.502;2023-04-06T15:06:55;8.90;76.70
78788;DHT22;68131;52.508;5.502;2023-04-06T15:09:24;8.90;76.50
78788;DHT22;68131;52.508;5.502;2023-04-06T15:11:56;8.90;76.70
78788;DHT22;68131;52.508;5.502;2023-04-06T15:14:25;8.90;76.70
78788;DHT22;68131;52.508;5.502;2023-04-06T15:16:54;8.90;76.80
78788;DHT22;68131;52.508;5.502;2023-04-06T15:19:23;8.80;76.60
78788;DHT22;68131;52.508;5.502;2023-04-06T15:21:53;8.80;77.10
78788;DHT22;68131;52.508;5.502;2023-04-06T15:24:22;8.80;77.10
78788;DHT22;68131;52.508;5.502;2023-04-06T15:26:51;8.80;77.20
78788;DHT22;68131;52.508;5.502;2023-04-06T15:29:23;8.80;76.70
78788;DHT22;68131;52.508;5.502;2023-04-06T15:31:52;8.80;76.90
78788;DHT22;68131;52.508;5.502;2023-04-06T15:34:21;8.70;77.40
78788;DHT22;68131;52.508;5.502;2023-04-06T15:36:51;8.80;77.40
78788;DHT22;68131;52.508;5.502;2023-04-06T15:39:20;8.80;77.20
78788;DHT22;68131;52.508;5.502;2023-04-06T15:41:49;8.80;77.20
78788;DHT22;68131;52.508;5.502;2023-04-06T15:44:18;8.80;77.20
78788;DHT22;68131;52.508;5.502;2023-04-06T15:46:50;8.80;76.90
78788;DHT22;68131;52.508;5.502;2023-04-06T15:49:19;8.80;76.90
78788;DHT22;68131;52.508;5.502;2023-04-06T15:51:48;8.70;77.00
78788;DHT22;68131;52.508;5.502;2023-04-06T15:54:18;8.70;77.10
78788;DHT22;68131;52.508;5.502;2023-04-06T15:56:48;8.70;77.10
78788;DHT22;68131;52.508;5.502;2023-04-06T15:59:17;8.70;77.40
78788;DHT22;68131;52.508;5.502;2023-04-06T16:01:46;8.70;77.20
78788;DHT22;68131;52.508;5.502;2023-04-06T16:04:18;8.70;77.40
78788;DHT22;68131;52.508;5.502;2023-04-06T16:06:48;8.70;77.60
78788;DHT22;68131;52.508;5.502;2023-04-06T16:09:17;8.70;77.60